Time;durP1;ratioP1;P1;durP2;ratioP2;P2;SDS_P1;SDS_P2;PMS_P1;PMS_P2;Temp;Humidity;BMP_temperature;BMP_pressure;BME280_temperature;BME280_humidity;BME280_pressure;Samples;Min_cycle;Max_cycle;Signal;HPM_P1;HPM_P2
2020/07/11 00:02:28;;;;;;;1.40;1.30;;;;;;;21.64;61.47;100670.12;;;;-53
2020/07/11 00:05:28;;;;;;;1.77;1.30;;;;;;;21.63;61.48;100673.14;;;;-53
2020/07/11 00:08:27;;;;;;;1.27;1.23;;;;;;;21.63;61.38;100675.59;;;;-52
2020/07/11 00:11:27;;;;;;;1.41;1.31;;;;;;;21.63;61.39;100678.45;;;;-53
2020/07/11 00:14:27;;;;;;;1.47;1.37;;;;;;;21.63;61.49;100682.61;;;;-53
2020/07/11 00:17:28;;;;;;;1.49;1.30;;;;;;;21.62;61.44;100684.14;;;;-53
2020/07/11 00:20:28;;;;;;;1.40;1.30;;;;;;;21.62;61.45;100681.94;;;;-51
2020/07/11 00:23:28;;;;;;;3.06;1.29;;;;;;;21.61;61.41;100678.53;;;;-49
2020/07/11 00:32:54;;;;;;;1.45;1.20;;;;;;;21.61;61.41;100656.52;;;;-49
2020/07/11 00:37:53;;;;;;;1.39;1.29;;;;;;;21.60;61.53;100664.41;;;;-53
2020/07/11 00:41:54;;;;;;;1.40;1.30;;;;;;;21.60;61.48;100662.85;;;;-49
2020/07/11 00:47:54;;;;;;;1.35;1.25;;;;;;;21.59;61.51;100669.05;;;;-49
2020/07/11 00:52:54;;;;;;;1.31;1.21;;;;;;;21.59;61.49;100675.91;;;;-51
2020/07/11 00:56:53;;;;;;;1.49;1.39;;;;;;;21.58;61.50;100681.14;;;;-52
2020/07/11 01:00:54;;;;;;;1.23;1.20;;;;;;;21.58;61.45;100680.81;;;;-48
2020/07/11 01:03:54;;;;;;;1.40;1.30;;;;;;;21.57;61.41;100683.57;;;;-49
2020/07/11 01:06:53;;;;;;;1.58;1.48;;;;;;;21.58;61.37;100688.08;;;;-52
2020/07/11 01:09:54;;;;;;;1.39;1.30;;;;;;;21.58;61.46;100687.40;;;;-49
2020/07/11 01:12:53;;;;;;;1.32;1.24;;;;;;;21.58;61.42;100685.84;;;;-59
2020/07/11 01:15:54;;;;;;;1.37;1.27;;;;;;;21.57;61.46;100687.90;;;;-49
2020/07/11 01:18:54;;;;;;;1.40;1.30;;;;;;;21.57;61.40;100688.79;;;;-50
2020/07/11 01:21:54;;;;;;;1.26;1.20;;;;;;;21.58;61.38;100686.26;;;;-48
2020/07/11 01:24:54;;;;;;;1.32;1.25;;;;;;;21.57;61.40;100678.02;;;;-52
2020/07/11 01:27:55;;;;;;;1.46;1.35;;;;;;;21.58;61.35;100674.19;;;;-48
2020/07/11 01:30:54;;;;;;;1.39;1.29;;;;;;;21.57;61.39;100670.20;;;;-49
2020/07/11 01:33:53;;;;;;;1.41;1.31;;;;;;;21.57;61.35;100674.77;;;;-52
2020/07/11 01:36:53;;;;;;;1.44;1.34;;;;;;;21.57;61.34;100684.23;;;;-52
2020/07/11 01:39:53;;;;;;;1.40;1.30;;;;;;;21.57;61.34;100686.60;;;;-58
2020/07/11 01:42:54;;;;;;;1.49;1.39;;;;;;;21.57;61.35;100686.60;;;;-48
2020/07/11 01:45:54;;;;;;;1.41;1.31;;;;;;;21.57;61.33;100693.94;;;;-49
2020/07/11 01:48:53;;;;;;;2.01;1.40;;;;;;;21.56;61.32;100704.77;;;;-58
2020/07/11 01:51:55;;;;;;;1.31;1.22;;;;;;;21.56;61.38;100705.91;;;;-49
2020/07/11 01:54:54;;;;;;;1.33;1.23;;;;;;;21.56;61.41;100712.52;;;;-48
2020/07/11 01:57:53;;;;;;;1.51;1.41;;;;;;;21.55;61.32;100722.55;;;;-52
2020/07/11 02:00:53;;;;;;;1.40;1.30;;;;;;;21.55;61.32;100724.34;;;;-61
2020/07/11 02:03:53;;;;;;;1.43;1.33;;;;;;;21.55;61.37;100723.86;;;;-53
2020/07/11 02:06:54;;;;;;;1.34;1.24;;;;;;;21.55;61.35;100722.63;;;;-49
2020/07/11 02:09:54;;;;;;;1.35;1.25;;;;;;;21.55;61.35;100724.35;;;;-52
2020/07/11 02:12:53;;;;;;;1.46;1.35;;;;;;;21.55;61.41;100721.34;;;;-52
2020/07/11 02:15:54;;;;;;;1.41;1.31;;;;;;;21.54;61.43;100719.79;;;;-52
2020/07/11 02:18:54;;;;;;;1.41;1.31;;;;;;;21.54;61.45;100721.50;;;;-61
2020/07/11 02:21:53;;;;;;;1.20;1.20;;;;;;;21.53;61.38;100725.64;;;;-60
2020/07/11 02:24:53;;;;;;;1.43;1.33;;;;;;;21.54;61.39;100730.61;;;;-52
2020/07/11 02:27:54;;;;;;;1.70;1.29;;;;;;;21.54;61.44;100735.86;;;;-53
2020/07/11 02:30:53;;;;;;;1.37;1.27;;;;;;;21.54;61.45;100733.06;;;;-61
2020/07/11 02:33:54;;;;;;;1.21;1.20;;;;;;;21.53;61.43;100729.97;;;;-49
2020/07/11 02:36:54;;;;;;;1.34;1.24;;;;;;;21.53;61.42;100729.16;;;;-48
2020/07/11 02:39:54;;;;;;;1.45;1.35;;;;;;;21.53;61.36;100737.22;;;;-51
2020/07/11 02:42:53;;;;;;;1.40;1.30;;;;;;;21.53;61.37;100737.88;;;;-52
2020/07/11 02:45:53;;;;;;;1.23;1.20;;;;;;;21.53;61.47;100740.91;;;;-58
2020/07/11 02:48:54;;;;;;;1.20;1.20;;;;;;;21.52;61.36;100739.84;;;;-52
2020/07/11 02:51:54;;;;;;;1.28;1.20;;;;;;;21.52;61.47;100734.11;;;;-52
2020/07/11 02:54:54;;;;;;;1.46;1.36;;;;;;;21.52;61.48;100731.09;;;;-50
2020/07/11 02:57:54;;;;;;;1.50;1.40;;;;;;;21.52;61.53;100733.38;;;;-48
2020/07/11 03:00:53;;;;;;;1.40;1.30;;;;;;;21.52;61.46;100734.20;;;;-53
2020/07/11 03:03:53;;;;;;;1.25;1.20;;;;;;;21.51;61.45;100737.63;;;;-52
2020/07/11 03:06:54;;;;;;;1.40;1.30;;;;;;;21.51;61.40;100739.91;;;;-49
2020/07/11 03:09:53;;;;;;;1.31;1.21;;;;;;;21.51;61.47;100735.44;;;;-53
2020/07/11 03:12:54;;;;;;;1.37;1.25;;;;;;;21.51;61.51;100740.33;;;;-49
2020/07/11 03:15:53;;;;;;;1.30;1.20;;;;;;;21.51;61.58;100744.41;;;;-52
2020/07/11 03:18:54;;;;;;;1.45;1.35;;;;;;;21.50;61.57;100740.14;;;;-51
2020/07/11 03:21:54;;;;;;;1.32;1.22;;;;;;;21.50;61.58;100744.73;;;;-48
2020/07/11 03:24:54;;;;;;;1.36;1.27;;;;;;;21.50;61.54;100743.11;;;;-52
2020/07/11 03:27:53;;;;;;;1.33;1.24;;;;;;;21.49;61.47;100740.64;;;;-52
2020/07/11 03:30:53;;;;;;;1.39;1.29;;;;;;;21.50;61.46;100748.73;;;;-52
2020/07/11 03:33:53;;;;;;;1.40;1.30;;;;;;;21.49;61.53;100755.31;;;;-52
2020/07/11 03:36:54;;;;;;;1.40;1.30;;;;;;;21.49;61.51;100761.19;;;;-52
2020/07/11 03:39:53;;;;;;;1.35;1.25;;;;;;;21.49;61.56;100766.81;;;;-51
2020/07/11 03:42:53;;;;;;;1.53;1.43;;;;;;;21.48;61.56;100772.62;;;;-52
2020/07/11 03:45:54;;;;;;;1.40;1.30;;;;;;;21.49;61.53;100778.64;;;;-52
2020/07/11 03:48:54;;;;;;;1.40;1.30;;;;;;;21.48;61.50;100780.86;;;;-48
2020/07/11 03:51:54;;;;;;;1.33;1.23;;;;;;;21.48;61.56;100787.77;;;;-60
2020/07/11 03:54:54;;;;;;;1.40;1.30;;;;;;;21.48;61.49;100798.30;;;;-49
2020/07/11 03:57:54;;;;;;;1.30;1.20;;;;;;;21.48;61.48;100805.00;;;;-52
2020/07/11 04:00:54;;;;;;;1.48;1.38;;;;;;;21.49;61.51;100807.67;;;;-52
2020/07/11 04:03:53;;;;;;;1.32;1.22;;;;;;;21.48;61.58;100808.91;;;;-52
2020/07/11 04:06:54;;;;;;;1.40;1.30;;;;;;;21.48;61.47;100815.32;;;;-52
2020/07/11 04:09:54;;;;;;;1.33;1.23;;;;;;;21.48;61.58;100823.64;;;;-52
2020/07/11 04:12:53;;;;;;;1.36;1.27;;;;;;;21.48;61.57;100823.31;;;;-52
2020/07/11 04:15:53;;;;;;;1.30;1.25;;;;;;;21.47;61.57;100832.21;;;;-52
2020/07/11 04:18:54;;;;;;;1.23;1.20;;;;;;;21.47;61.59;100838.98;;;;-52
2020/07/11 04:21:53;;;;;;;1.29;1.19;;;;;;;21.47;61.53;100842.41;;;;-52
2020/07/11 04:24:53;;;;;;;1.43;1.33;;;;;;;21.46;61.51;100840.54;;;;-52
2020/07/11 04:27:53;;;;;;;1.40;1.30;;;;;;;21.46;61.52;100842.88;;;;-52
2020/07/11 04:30:53;;;;;;;1.40;1.30;;;;;;;21.45;61.58;100842.88;;;;-52
2020/07/11 04:33:53;;;;;;;1.30;1.20;;;;;;;21.45;61.58;100838.97;;;;-52
2020/07/11 04:36:53;;;;;;;1.32;1.27;;;;;;;21.44;61.59;100836.13;;;;-52
2020/07/11 04:39:53;;;;;;;1.37;1.24;;;;;;;21.44;61.61;100836.61;;;;-52
2020/07/11 04:42:53;;;;;;;1.37;1.27;;;;;;;21.44;61.60;100832.54;;;;-52
2020/07/11 04:45:53;;;;;;;1.30;1.20;;;;;;;21.44;61.68;100838.25;;;;-52
2020/07/11 04:48:54;;;;;;;1.16;1.16;;;;;;;21.44;61.61;100846.16;;;;-52
2020/07/11 04:51:54;;;;;;;1.37;1.27;;;;;;;21.43;61.58;100850.61;;;;-52
2020/07/11 04:54:53;;;;;;;1.33;1.23;;;;;;;21.43;61.66;100850.95;;;;-51
2020/07/11 04:57:53;;;;;;;1.46;1.36;;;;;;;21.43;61.59;100852.17;;;;-52
2020/07/11 05:00:53;;;;;;;1.29;1.20;;;;;;;21.43;61.59;100854.78;;;;-52
2020/07/11 05:03:54;;;;;;;1.27;1.19;;;;;;;21.43;61.59;100859.42;;;;-52
2020/07/11 05:06:54;;;;;;;1.76;1.30;;;;;;;21.43;61.55;100864.41;;;;-52
2020/07/11 05:09:54;;;;;;;1.15;1.15;;;;;;;21.42;61.55;100866.12;;;;-51
2020/07/11 05:12:53;;;;;;;1.38;1.28;;;;;;;21.43;61.54;100870.77;;;;-52
2020/07/11 05:15:54;;;;;;;1.39;1.29;;;;;;;21.42;61.55;100871.91;;;;-52
2020/07/11 05:18:54;;;;;;;1.29;1.25;;;;;;;21.42;61.52;100875.06;;;;-52
2020/07/11 05:21:54;;;;;;;1.09;1.09;;;;;;;21.42;61.52;100879.49;;;;-52
2020/07/11 05:24:53;;;;;;;1.35;1.25;;;;;;;21.40;61.54;100878.06;;;;-52
2020/07/11 05:27:53;;;;;;;1.35;1.27;;;;;;;21.41;61.57;100881.89;;;;-51
2020/07/11 05:30:53;;;;;;;1.31;1.21;;;;;;;21.41;61.57;100884.66;;;;-52
2020/07/11 05:33:54;;;;;;;1.36;1.28;;;;;;;21.40;61.50;100889.31;;;;-52
2020/07/11 05:36:53;;;;;;;1.36;1.27;;;;;;;21.41;61.54;100895.09;;;;-52
2020/07/11 05:39:53;;;;;;;1.35;1.25;;;;;;;21.41;61.58;100898.44;;;;-52
2020/07/11 05:42:54;;;;;;;1.27;1.20;;;;;;;21.40;61.56;100899.26;;;;-52
2020/07/11 05:45:53;;;;;;;5.30;1.78;;;;;;;21.37;60.49;100905.62;;;;-52
2020/07/11 05:48:53;;;;;;;3.33;1.71;;;;;;;21.18;60.33;100913.39;;;;-55
2020/07/11 05:51:53;;;;;;;2.30;1.74;;;;;;;21.07;60.29;100916.83;;;;-50
2020/07/11 05:54:53;;;;;;;5.77;1.71;;;;;;;21.05;60.76;100919.91;;;;-50
2020/07/11 05:57:54;;;;;;;1.63;1.53;;;;;;;21.08;60.90;100923.51;;;;-50
2020/07/11 06:00:53;;;;;;;1.54;1.44;;;;;;;21.11;60.93;100924.20;;;;-50
2020/07/11 06:03:54;;;;;;;1.57;1.47;;;;;;;21.14;60.94;100924.69;;;;-50
2020/07/11 06:06:54;;;;;;;1.94;1.61;;;;;;;21.17;60.89;100931.00;;;;-50
2020/07/11 06:09:53;;;;;;;2.03;1.67;;;;;;;21.20;60.93;100924.73;;;;-51
2020/07/11 06:12:53;;;;;;;1.98;1.55;;;;;;;21.22;60.97;100931.84;;;;-50
2020/07/11 06:15:53;;;;;;;4.64;1.73;;;;;;;21.24;61.00;100936.50;;;;-50
2020/07/11 06:18:53;;;;;;;2.07;1.55;;;;;;;21.25;61.01;100939.75;;;;-50
2020/07/11 06:21:53;;;;;;;1.79;1.47;;;;;;;21.26;61.04;100944.83;;;;-50
2020/07/11 06:24:53;;;;;;;1.69;1.55;;;;;;;21.27;61.04;100943.27;;;;-50
2020/07/11 06:27:53;;;;;;;1.93;1.41;;;;;;;21.29;61.04;100949.97;;;;-50
2020/07/11 06:30:53;;;;;;;2.31;1.49;;;;;;;21.29;61.05;100951.47;;;;-51
2020/07/11 06:33:53;;;;;;;2.40;1.53;;;;;;;21.30;61.05;100952.20;;;;-51
2020/07/11 06:36:53;;;;;;;2.49;1.52;;;;;;;21.30;61.12;100951.05;;;;-50
2020/07/11 06:39:54;;;;;;;1.50;1.37;;;;;;;21.31;61.13;100949.74;;;;-51
2020/07/11 06:42:53;;;;;;;1.58;1.40;;;;;;;21.32;61.11;100952.53;;;;-50
2020/07/11 06:45:54;;;;;;;1.48;1.38;;;;;;;21.32;61.09;100951.80;;;;-53
2020/07/11 06:48:53;;;;;;;1.51;1.41;;;;;;;21.33;61.12;100950.00;;;;-51
2020/07/11 06:51:53;;;;;;;1.63;1.46;;;;;;;21.33;61.11;100954.73;;;;-55
2020/07/11 06:54:53;;;;;;;1.41;1.31;;;;;;;21.34;61.10;100961.03;;;;-61
2020/07/11 06:57:53;;;;;;;2.21;1.45;;;;;;;21.34;61.15;100964.45;;;;-60
2020/07/11 07:00:54;;;;;;;1.80;1.39;;;;;;;21.35;61.14;100969.09;;;;-60
2020/07/11 07:03:53;;;;;;;1.50;1.40;;;;;;;21.35;61.13;100972.92;;;;-59
2020/07/11 07:06:53;;;;;;;1.56;1.46;;;;;;;21.35;61.11;100970.88;;;;-59
2020/07/11 07:09:53;;;;;;;1.61;1.41;;;;;;;21.36;61.07;100972.05;;;;-59
2020/07/11 07:12:53;;;;;;;1.50;1.40;;;;;;;21.34;61.15;100973.25;;;;-59
2020/07/11 07:15:53;;;;;;;1.43;1.33;;;;;;;21.36;61.13;100974.25;;;;-59
2020/07/11 07:18:53;;;;;;;1.40;1.30;;;;;;;21.36;61.06;100976.70;;;;-59
2020/07/11 07:21:53;;;;;;;1.50;1.40;;;;;;;21.36;61.14;100977.10;;;;-59
2020/07/11 07:24:53;;;;;;;1.84;1.43;;;;;;;21.36;61.08;100978.98;;;;-59
2020/07/11 07:27:53;;;;;;;1.78;1.44;;;;;;;21.36;61.10;100983.14;;;;-59
2020/07/11 07:30:54;;;;;;;1.81;1.37;;;;;;;21.37;61.17;100984.44;;;;-59
2020/07/11 07:33:53;;;;;;;2.04;1.46;;;;;;;21.37;61.09;100981.17;;;;-58
2020/07/11 07:36:53;;;;;;;1.40;1.30;;;;;;;21.36;61.09;100983.55;;;;-59
2020/07/11 07:39:53;;;;;;;1.40;1.30;;;;;;;21.37;61.04;100985.00;;;;-59
2020/07/11 07:42:53;;;;;;;1.83;1.30;;;;;;;21.37;61.05;100987.16;;;;-58
2020/07/11 07:45:53;;;;;;;1.30;1.20;;;;;;;21.38;61.11;100989.52;;;;-59
2020/07/11 07:48:53;;;;;;;1.40;1.30;;;;;;;21.38;61.08;100988.53;;;;-59
2020/07/11 07:52:04;;;;;;;1.58;1.40;;;;;;;21.38;61.11;100989.02;;;;-59
2020/07/11 07:54:53;;;;;;;1.40;1.30;;;;;;;21.38;61.08;100986.09;;;;-59
2020/07/11 07:57:53;;;;;;;1.42;1.31;;;;;;;21.38;61.07;100982.01;;;;-59
2020/07/11 08:00:53;;;;;;;1.30;1.20;;;;;;;21.38;60.98;100983.31;;;;-59
2020/07/11 08:03:54;;;;;;;1.40;1.30;;;;;;;21.38;61.13;100991.30;;;;-59
2020/07/11 08:06:53;;;;;;;1.34;1.24;;;;;;;21.39;61.06;100993.42;;;;-59
2020/07/11 08:09:53;;;;;;;1.41;1.31;;;;;;;21.38;60.99;100991.55;;;;-59
2020/07/11 08:12:54;;;;;;;1.25;1.21;;;;;;;21.38;61.06;100992.77;;;;-59
2020/07/11 08:15:53;;;;;;;1.47;1.37;;;;;;;21.37;61.00;100994.16;;;;-58
2020/07/11 08:19:00;;;;;;;1.44;1.33;;;;;;;21.37;61.00;100995.52;;;;-59
2020/07/11 08:21:53;;;;;;;1.31;1.21;;;;;;;21.38;61.04;100993.27;;;;-51
2020/07/11 08:24:54;;;;;;;1.46;1.36;;;;;;;21.38;61.03;100991.47;;;;-51
2020/07/11 08:27:53;;;;;;;2.89;1.38;;;;;;;21.38;61.02;100998.32;;;;-52
2020/07/11 08:30:53;;;;;;;1.87;1.31;;;;;;;21.39;60.70;100996.52;;;;-53
2020/07/11 08:33:53;;;;;;;1.60;1.29;;;;;;;21.40;60.61;100990.75;;;;-54
2020/07/11 08:36:53;;;;;;;1.37;1.27;;;;;;;21.41;60.54;100996.77;;;;-52
2020/07/11 08:39:53;;;;;;;1.83;1.42;;;;;;;21.42;60.36;101006.77;;;;-56
2020/07/11 08:42:53;;;;;;;1.43;1.33;;;;;;;21.43;60.41;100997.88;;;;-51
2020/07/11 08:45:53;;;;;;;1.63;1.40;;;;;;;21.43;60.50;101000.66;;;;-52
2020/07/11 08:48:53;;;;;;;2.13;1.39;;;;;;;21.44;60.51;101002.88;;;;-53
2020/07/11 08:51:53;;;;;;;2.59;1.43;;;;;;;21.45;60.44;101004.58;;;;-52
2020/07/11 08:55:53;;;;;;;1.57;1.47;;;;;;;21.46;60.51;101012.35;;;;-53
2020/07/11 09:00:53;;;;;;;1.89;1.40;;;;;;;21.47;60.68;101006.47;;;;-64
2020/07/11 09:05:54;;;;;;;4.23;1.39;;;;;;;21.49;60.72;101014.23;;;;-57
2020/07/11 09:09:53;;;;;;;2.48;1.50;;;;;;;21.50;60.75;101015.73;;;;-53
2020/07/11 09:14:53;;;;;;;1.82;1.51;;;;;;;21.51;60.80;101022.98;;;;-56
2020/07/11 09:19:54;;;;;;;2.35;1.40;;;;;;;21.51;60.73;101024.86;;;;-57
2020/07/11 09:22:54;;;;;;;3.72;1.83;;;;;;;21.51;60.74;101027.14;;;;-62
2020/07/11 09:27:54;;;;;;;1.55;1.39;;;;;;;21.50;60.78;101032.36;;;;-63
2020/07/11 09:31:54;;;;;;;2.93;1.60;;;;;;;21.50;60.67;101029.27;;;;-62
2020/07/11 09:36:53;;;;;;;4.99;1.63;;;;;;;21.49;60.70;101037.06;;;;-63
2020/07/11 09:40:54;;;;;;;2.87;1.50;;;;;;;21.50;60.71;101039.86;;;;-62
2020/07/11 09:45:54;;;;;;;2.32;1.39;;;;;;;21.49;60.65;101032.09;;;;-62
2020/07/11 09:50:53;;;;;;;1.85;1.40;;;;;;;21.49;60.66;101035.27;;;;-62
2020/07/11 09:53:54;;;;;;;2.11;1.43;;;;;;;21.49;60.59;101033.16;;;;-62
2020/07/11 09:56:53;;;;;;;1.78;1.40;;;;;;;21.48;60.61;101034.05;;;;-62
2020/07/11 09:59:54;;;;;;;1.61;1.37;;;;;;;21.49;60.61;101031.61;;;;-62
2020/07/11 10:02:54;;;;;;;1.88;1.40;;;;;;;21.49;60.58;101030.46;;;;-57
2020/07/11 10:05:54;;;;;;;1.65;1.37;;;;;;;21.49;60.54;101037.64;;;;-62
2020/07/11 10:08:54;;;;;;;3.11;1.43;;;;;;;21.48;60.57;101045.23;;;;-57
2020/07/11 10:11:54;;;;;;;1.54;1.41;;;;;;;21.49;60.58;101046.13;;;;-57
2020/07/11 10:14:53;;;;;;;1.98;1.31;;;;;;;21.49;60.56;101051.59;;;;-59
2020/07/11 10:17:53;;;;;;;2.17;1.33;;;;;;;21.48;60.55;101047.34;;;;-58
2020/07/11 10:20:54;;;;;;;2.39;1.40;;;;;;;21.49;60.54;101038.70;;;;-46
2020/07/11 10:23:54;;;;;;;3.49;1.33;;;;;;;21.51;60.28;101048.42;;;;-48
2020/07/11 10:26:54;;;;;;;2.13;1.29;;;;;;;21.52;60.12;101047.77;;;;-48
2020/07/11 10:29:54;;;;;;;2.20;1.49;;;;;;;21.53;60.05;101055.94;;;;-48
2020/07/11 10:32:53;;;;;;;1.57;1.39;;;;;;;21.54;60.03;101057.84;;;;-50
2020/07/11 10:35:54;;;;;;;5.19;1.59;;;;;;;21.56;60.21;101052.93;;;;-55
2020/07/11 10:38:53;;;;;;;1.55;1.45;;;;;;;21.56;60.08;101055.13;;;;-56
2020/07/11 10:41:54;;;;;;;2.29;1.39;;;;;;;21.58;59.86;101061.30;;;;-65
2020/07/11 10:44:54;;;;;;;3.63;1.52;;;;;;;21.59;60.01;101063.73;;;;-57
2020/07/11 10:47:54;;;;;;;2.39;1.37;;;;;;;21.59;60.20;101064.22;;;;-57
2020/07/11 10:50:54;;;;;;;2.27;1.50;;;;;;;21.59;60.10;101061.86;;;;-56
2020/07/11 10:53:54;;;;;;;3.00;1.51;;;;;;;21.61;60.05;101059.10;;;;-55
2020/07/11 10:56:54;;;;;;;3.87;1.64;;;;;;;21.61;59.97;101058.77;;;;-57
2020/07/11 10:59:53;;;;;;;2.33;1.63;;;;;;;21.61;59.92;101049.31;;;;-56
2020/07/11 11:02:54;;;;;;;4.25;1.63;;;;;;;21.62;60.06;101059.34;;;;-59
2020/07/11 11:05:54;;;;;;;2.75;1.41;;;;;;;21.62;60.12;101061.54;;;;-57
2020/07/11 11:08:54;;;;;;;2.12;1.50;;;;;;;21.62;59.82;101063.66;;;;-55
2020/07/11 11:11:54;;;;;;;1.79;1.50;;;;;;;21.63;60.11;101063.03;;;;-55
2020/07/11 11:14:54;;;;;;;3.15;1.57;;;;;;;21.63;60.11;101058.95;;;;-55
2020/07/11 11:17:53;;;;;;;2.85;1.50;;;;;;;21.63;60.00;101061.89;;;;-55
2020/07/11 11:20:54;;;;;;;2.49;1.47;;;;;;;21.63;60.09;101059.94;;;;-55
2020/07/11 11:23:54;;;;;;;2.19;1.47;;;;;;;21.62;60.04;101070.35;;;;-54
2020/07/11 11:26:53;;;;;;;1.70;1.53;;;;;;;21.62;60.09;101072.09;;;;-55
2020/07/11 11:29:54;;;;;;;3.59;1.74;;;;;;;21.62;60.03;101074.02;;;;-55
2020/07/11 11:32:54;;;;;;;2.81;1.65;;;;;;;21.61;60.03;101070.20;;;;-55
2020/07/11 11:35:54;;;;;;;1.75;1.45;;;;;;;21.61;60.05;101071.66;;;;-55
2020/07/11 11:38:54;;;;;;;2.65;1.43;;;;;;;21.60;60.07;101064.24;;;;-55
2020/07/11 11:41:53;;;;;;;1.69;1.39;;;;;;;21.61;60.04;101065.47;;;;-54
2020/07/11 11:44:53;;;;;;;2.00;1.42;;;;;;;21.61;60.04;101061.39;;;;-54
2020/07/11 11:47:53;;;;;;;4.11;1.51;;;;;;;21.61;59.15;101067.18;;;;-55
2020/07/11 11:50:54;;;;;;;4.51;1.51;;;;;;;21.61;58.92;101061.88;;;;-55
2020/07/11 11:53:54;;;;;;;4.03;1.54;;;;;;;21.59;58.75;101063.57;;;;-55
2020/07/11 11:56:54;;;;;;;4.77;1.51;;;;;;;21.59;58.97;101063.16;;;;-54
2020/07/11 11:59:54;;;;;;;1.95;1.60;;;;;;;21.59;59.00;101064.63;;;;-54
2020/07/11 12:02:53;;;;;;;2.64;1.50;;;;;;;21.58;59.03;101062.84;;;;-55
2020/07/11 12:05:53;;;;;;;1.85;1.29;;;;;;;21.58;59.03;101071.46;;;;-54
2020/07/11 12:08:54;;;;;;;2.00;1.54;;;;;;;21.58;59.08;101071.37;;;;-55
2020/07/11 12:12:01;;;;;;;2.25;1.50;;;;;;;21.57;59.10;101066.66;;;;-55
2020/07/11 12:14:54;;;;;;;2.75;1.57;;;;;;;21.57;59.06;101067.23;;;;-55
2020/07/11 12:17:54;;;;;;;1.59;1.47;;;;;;;21.56;59.06;101067.20;;;;-55
2020/07/11 12:20:54;;;;;;;1.51;1.41;;;;;;;21.56;59.14;101063.89;;;;-55
2020/07/11 12:23:54;;;;;;;3.17;1.60;;;;;;;21.56;59.14;101055.73;;;;-54
2020/07/11 12:26:53;;;;;;;1.63;1.50;;;;;;;21.56;59.23;101051.81;;;;-54
2020/07/11 12:29:53;;;;;;;2.68;1.57;;;;;;;21.56;59.22;101047.38;;;;-55
2020/07/11 12:32:53;;;;;;;3.26;1.55;;;;;;;21.56;59.17;101053.13;;;;-56
2020/07/11 12:35:54;;;;;;;2.45;1.50;;;;;;;21.56;59.24;101051.16;;;;-56
2020/07/11 12:38:54;;;;;;;2.79;1.35;;;;;;;21.56;59.24;101047.33;;;;-56
2020/07/11 12:41:54;;;;;;;1.60;1.50;;;;;;;21.56;59.20;101053.45;;;;-55
2020/07/11 12:44:54;;;;;;;3.31;1.39;;;;;;;21.56;59.33;101053.66;;;;-56
2020/07/11 12:47:53;;;;;;;1.56;1.43;;;;;;;21.56;59.27;101056.59;;;;-56
2020/07/11 12:50:53;;;;;;;1.55;1.45;;;;;;;21.56;59.24;101050.75;;;;-56
2020/07/11 12:53:53;;;;;;;2.53;1.53;;;;;;;21.56;59.21;101053.77;;;;-54
2020/07/11 12:56:54;;;;;;;1.52;1.36;;;;;;;21.56;59.33;101057.53;;;;-55
2020/07/11 12:59:54;;;;;;;1.75;1.32;;;;;;;21.56;59.29;101054.18;;;;-55
2020/07/11 13:02:54;;;;;;;3.81;1.41;;;;;;;21.56;59.43;101060.67;;;;-56
2020/07/11 13:05:54;;;;;;;1.61;1.50;;;;;;;21.56;59.33;101058.80;;;;-56
2020/07/11 13:08:54;;;;;;;1.53;1.43;;;;;;;21.56;59.29;101059.40;;;;-54
2020/07/11 13:11:53;;;;;;;2.27;1.47;;;;;;;21.56;59.33;101062.80;;;;-54
2020/07/11 13:14:53;;;;;;;1.61;1.49;;;;;;;21.56;59.46;101049.18;;;;-55
2020/07/11 13:17:54;;;;;;;1.50;1.40;;;;;;;21.56;59.46;101053.09;;;;-55
2020/07/11 13:20:53;;;;;;;1.48;1.38;;;;;;;21.56;59.45;101052.30;;;;-54
2020/07/11 13:23:54;;;;;;;1.54;1.44;;;;;;;21.56;59.41;101057.93;;;;-54
2020/07/11 13:26:54;;;;;;;1.57;1.41;;;;;;;21.56;59.34;101062.72;;;;-54
2020/07/11 13:29:53;;;;;;;2.77;1.41;;;;;;;21.56;59.34;101063.05;;;;-52
2020/07/11 13:32:53;;;;;;;1.65;1.38;;;;;;;21.57;59.38;101063.87;;;;-54
2020/07/11 13:35:53;;;;;;;7.43;1.83;;;;;;;21.57;59.60;101060.53;;;;-53
2020/07/11 13:38:53;;;;;;;3.63;1.57;;;;;;;21.60;59.24;101066.17;;;;-49
2020/07/11 13:41:54;;;;;;;2.07;1.50;;;;;;;21.61;59.12;101059.59;;;;-46
2020/07/11 13:44:54;;;;;;;4.58;1.67;;;;;;;21.63;59.26;101057.48;;;;-51
2020/07/11 13:47:54;;;;;;;6.79;1.71;;;;;;;21.64;59.51;101059.77;;;;-51
2020/07/11 13:50:54;;;;;;;5.46;1.59;;;;;;;21.63;59.25;101058.70;;;;-49
2020/07/11 13:53:53;;;;;;;2.16;1.43;;;;;;;21.65;58.82;101064.19;;;;-49
2020/07/11 13:56:53;;;;;;;2.73;1.39;;;;;;;21.64;59.36;101067.42;;;;-45
2020/07/11 13:59:53;;;;;;;3.51;1.69;;;;;;;21.65;59.38;101060.52;;;;-50
2020/07/11 14:02:54;;;;;;;3.10;1.59;;;;;;;21.66;59.38;101059.36;;;;-45
2020/07/11 14:05:54;;;;;;;2.92;1.41;;;;;;;21.69;59.54;101055.08;;;;-59
2020/07/11 14:08:54;;;;;;;4.92;1.53;;;;;;;21.69;59.52;101049.12;;;;-52
2020/07/11 14:11:54;;;;;;;3.28;1.75;;;;;;;21.70;59.31;101055.97;;;;-48
2020/07/11 14:14:54;;;;;;;2.80;1.59;;;;;;;21.69;59.44;101046.59;;;;-48
2020/07/11 14:17:54;;;;;;;4.17;1.60;;;;;;;21.69;59.49;101052.55;;;;-48
2020/07/11 14:20:54;;;;;;;5.99;1.59;;;;;;;21.69;59.31;101057.52;;;;-47
2020/07/11 14:23:54;;;;;;;3.37;1.50;;;;;;;21.69;59.32;101060.05;;;;-48
2020/07/11 14:26:54;;;;;;;4.67;1.53;;;;;;;21.68;59.16;101062.48;;;;-48
2020/07/11 14:29:54;;;;;;;2.55;1.41;;;;;;;21.68;59.07;101057.75;;;;-48
2020/07/11 14:32:53;;;;;;;2.47;1.60;;;;;;;21.69;59.29;101060.80;;;;-53
2020/07/11 14:35:53;;;;;;;3.43;1.71;;;;;;;21.70;59.25;101059.89;;;;-52
2020/07/11 14:38:54;;;;;;;1.95;1.51;;;;;;;21.71;59.23;101064.07;;;;-51
2020/07/11 14:41:54;;;;;;;3.26;1.61;;;;;;;21.72;59.11;101061.61;;;;-50
2020/07/11 14:44:54;;;;;;;4.45;1.78;;;;;;;21.72;59.23;101064.47;;;;-55
2020/07/11 14:47:53;;;;;;;2.50;1.69;;;;;;;21.74;59.17;101058.28;;;;-53
2020/07/11 14:50:53;;;;;;;3.04;1.55;;;;;;;21.74;59.27;101063.66;;;;-57
2020/07/11 14:53:53;;;;;;;1.88;1.51;;;;;;;21.75;59.31;101062.68;;;;-60
2020/07/11 14:56:53;;;;;;;2.89;1.67;;;;;;;21.75;59.05;101066.05;;;;-55
2020/07/11 14:59:53;;;;;;;6.81;1.73;;;;;;;21.76;59.38;101065.96;;;;-59
2020/07/11 15:02:54;;;;;;;3.66;1.57;;;;;;;21.76;59.33;101063.52;;;;-62
2020/07/11 15:05:54;;;;;;;2.52;1.63;;;;;;;21.77;59.36;101069.22;;;;-63
2020/07/11 15:08:53;;;;;;;2.72;1.61;;;;;;;21.77;59.26;101070.15;;;;-63
2020/07/11 15:11:53;;;;;;;3.05;1.44;;;;;;;21.76;59.23;101072.66;;;;-60
2020/07/11 15:14:53;;;;;;;2.35;1.55;;;;;;;21.76;59.25;101070.29;;;;-61
2020/07/11 15:17:53;;;;;;;4.41;1.69;;;;;;;21.76;59.23;101068.09;;;;-61
2020/07/11 15:20:54;;;;;;;2.52;1.67;;;;;;;21.76;59.29;101065.97;;;;-60
2020/07/11 15:23:54;;;;;;;2.67;1.60;;;;;;;21.75;59.17;101065.89;;;;-60
2020/07/11 15:26:53;;;;;;;2.67;1.59;;;;;;;21.75;59.18;101070.87;;;;-61
2020/07/11 15:29:53;;;;;;;2.62;1.58;;;;;;;21.75;59.18;101069.97;;;;-60
2020/07/11 15:32:53;;;;;;;1.93;1.49;;;;;;;21.75;59.12;101067.25;;;;-62
2020/07/11 15:35:53;;;;;;;3.19;1.44;;;;;;;21.75;59.18;101068.75;;;;-57
2020/07/11 15:38:54;;;;;;;2.42;1.51;;;;;;;21.74;59.28;101064.88;;;;-62
2020/07/11 15:41:54;;;;;;;5.32;1.60;;;;;;;21.74;59.21;101061.95;;;;-63
2020/07/11 15:44:53;;;;;;;4.41;1.53;;;;;;;21.74;59.08;101058.45;;;;-62
2020/07/11 15:47:53;;;;;;;2.57;1.51;;;;;;;21.74;59.21;101059.02;;;;-60
2020/07/11 15:50:53;;;;;;;3.57;1.55;;;;;;;21.75;59.26;101053.25;;;;-58
2020/07/11 15:53:53;;;;;;;4.61;1.67;;;;;;;21.75;59.19;101053.65;;;;-56
2020/07/11 15:56:54;;;;;;;5.71;1.81;;;;;;;21.76;59.22;101050.54;;;;-55
2020/07/11 15:59:54;;;;;;;1.85;1.60;;;;;;;21.77;59.16;101054.65;;;;-55
2020/07/11 16:02:54;;;;;;;4.38;1.51;;;;;;;21.78;58.94;101057.25;;;;-55
2020/07/11 16:05:53;;;;;;;2.87;1.60;;;;;;;21.78;59.01;101052.02;;;;-52
2020/07/11 16:08:54;;;;;;;2.18;1.71;;;;;;;21.80;58.92;101055.62;;;;-53
2020/07/11 16:11:53;;;;;;;2.37;1.56;;;;;;;21.80;59.01;101061.17;;;;-58
2020/07/11 16:15:11;;;;;;;1.85;1.53;;;;;;;21.82;58.99;101060.87;;;;-53
2020/07/11 16:17:54;;;;;;;4.17;1.69;;;;;;;21.82;58.88;101066.33;;;;-55
2020/07/11 16:20:54;;;;;;;3.03;1.59;;;;;;;21.82;59.04;101064.78;;;;-53
2020/07/11 16:23:53;;;;;;;4.09;1.62;;;;;;;21.82;59.03;101065.11;;;;-54
2020/07/11 16:26:53;;;;;;;2.00;1.55;;;;;;;21.83;58.98;101069.45;;;;-57
2020/07/11 16:29:53;;;;;;;2.31;1.68;;;;;;;21.84;58.90;101073.44;;;;-51
2020/07/11 16:32:54;;;;;;;2.79;1.60;;;;;;;21.85;58.96;101076.08;;;;-50
2020/07/11 16:35:54;;;;;;;3.77;1.73;;;;;;;21.86;58.87;101074.35;;;;-56
2020/07/11 16:38:54;;;;;;;3.29;1.55;;;;;;;21.87;58.96;101081.31;;;;-51
2020/07/11 16:41:53;;;;;;;2.56;1.60;;;;;;;21.88;58.97;101082.94;;;;-46
2020/07/11 16:44:53;;;;;;;2.62;1.49;;;;;;;21.89;58.97;101076.83;;;;-56
2020/07/11 16:47:53;;;;;;;2.03;1.60;;;;;;;21.89;58.97;101077.70;;;;-58
2020/07/11 16:50:53;;;;;;;2.25;1.57;;;;;;;21.89;59.03;101075.04;;;;-55
2020/07/11 16:53:54;;;;;;;2.81;1.60;;;;;;;21.90;59.11;101078.45;;;;-56
2020/07/11 16:56:54;;;;;;;4.49;1.69;;;;;;;21.90;58.93;101075.36;;;;-56
2020/07/11 16:59:53;;;;;;;2.95;1.61;;;;;;;21.90;58.95;101074.05;;;;-57
2020/07/11 17:02:53;;;;;;;2.60;1.63;;;;;;;21.89;59.11;101075.59;;;;-57
2020/07/11 17:05:53;;;;;;;3.27;1.65;;;;;;;21.88;58.97;101069.06;;;;-57
2020/07/11 17:08:53;;;;;;;3.55;1.78;;;;;;;21.88;59.02;101074.37;;;;-57
2020/07/11 17:11:53;;;;;;;2.76;1.81;;;;;;;21.88;59.05;101075.34;;;;-57
2020/07/11 17:14:54;;;;;;;4.33;1.72;;;;;;;21.87;58.94;101074.19;;;;-56
2020/07/11 17:17:53;;;;;;;2.99;1.73;;;;;;;21.87;59.02;101074.02;;;;-57
2020/07/11 17:20:53;;;;;;;3.16;1.84;;;;;;;21.86;58.91;101074.27;;;;-57